Hlavní strana
METAR-TAF:

METAR-TAF

Letiště :

Lagos, Nigérie

zeměpisná šířka: 06-35N, zeměpisná délka: 003-20E, výška: 40 m

Aktuální stav počasí

Zpráva byla vytvořena před 1 hodinou a 22 minutami, v 08:00 UTC
Západní vítr 3 kt
Teplota 26°C
Vlhkost vzduchu 94%
Tlak 1015 hPa
Viditelnost: 2000 m
Skoro jasno ve výšce 1000 ft
zákal

METAR: DNMM 160800Z 27003KT 2000 HZ FEW010 26/25 Q1015 TEMPO 3000 HZ

Čas: 10:22 (09:22 UTC)

Předpověď počasí

Zpráva byla vytvořena před 5 hodinami a 32 minutami, v 03:50 UTC
Předpověď platná od 16 v 06 UTC do 17 v 12 UTC
vítr z různých směrů 2 kt
Viditelnost: 4000 m
Skoro jasno ve výšce 1100 ft
zákal
Dočasný
od 16 v 06 UTC do 16 v 09 UTC
Viditelnost: 2000 m
Pravděpodobnost 30%
od 16 v 06 UTC do 16 v 07 UTC
Viditelnost: 1500 m
kouřmo
Změna
od 16 v 09 UTC do 16 v 11 UTC
Severozápadní vítr 10 kt
Změna
od 16 v 14 UTC do 16 v 16 UTC
Jižní vítr 6 kt

TAF: DNMM 160350Z 1606/1712 VRB02KT 4000 HZ FEW011 TEMPO 1606/1609 2000 PROB30 1606/1607 1500 BR BECMG 1609/1611 31010KT BECMG 1614/1616 18006KT

Stav a předpovědi počasí z více než 4 000 letišť (zprávy METAR a TAF).

Červené a žluté tečky na mapě představují dostupné meteorologické stanice.

Když kurzor umístíte na tečku, zobrazí se název stanice.

Pak kliknutím zobrazíte stav a předpověď počasí.

Chcete-li změnit mapu, kliknutím na zelené tlačítko se znaménkem +mapu přiblížíte, kliknutím na zelené tlačítko se znaménkem – mapu oddálíte a kliknutím na zelené šipky přejdete na sousední mapy.


METAR-TAF: